createdAt,value
2018-08-07T00:01:42.027Z,1.90
2018-08-07T00:04:09.849Z,1.70
2018-08-07T00:06:37.798Z,1.80
2018-08-07T00:09:09.039Z,2.00
2018-08-07T00:11:36.958Z,1.70
2018-08-07T00:14:04.904Z,1.60
2018-08-07T00:16:32.784Z,1.57
2018-08-07T00:19:00.638Z,1.90
2018-08-07T00:21:28.504Z,1.90
2018-08-07T00:23:56.415Z,1.70
2018-08-07T00:26:24.434Z,1.70
2018-08-07T00:28:52.428Z,1.75
2018-08-07T00:31:20.334Z,2.12
2018-08-07T00:33:48.226Z,1.80
2018-08-07T00:36:16.105Z,1.82
2018-08-07T00:38:44.035Z,2.20
2018-08-07T00:41:11.959Z,1.80
2018-08-07T00:43:39.899Z,2.05
2018-08-07T00:46:07.815Z,1.57
2018-08-07T00:48:35.765Z,1.80
2018-08-07T00:51:03.624Z,1.65
2018-08-07T00:53:31.494Z,1.85
2018-08-07T00:55:59.372Z,1.77
2018-08-07T00:58:27.259Z,1.80
2018-08-07T01:00:55.099Z,1.65
2018-08-07T01:03:22.953Z,1.87
2018-08-07T01:05:50.809Z,1.45
2018-08-07T01:08:18.655Z,1.65
2018-08-07T01:10:46.504Z,1.67
2018-08-07T01:13:14.341Z,1.70
2018-08-07T01:15:42.210Z,1.92
2018-08-07T01:18:10.075Z,1.70
2018-08-07T01:20:37.919Z,1.72
2018-08-07T01:23:05.837Z,1.92
2018-08-07T01:25:33.763Z,1.50
2018-08-07T01:28:01.627Z,1.70
2018-08-07T01:30:29.929Z,1.72
2018-08-07T01:32:58.085Z,1.62
2018-08-07T01:35:27.593Z,1.80
2018-08-07T01:37:55.460Z,1.80
2018-08-07T01:40:23.401Z,2.10
2018-08-07T01:42:51.303Z,1.75
2018-08-07T01:45:19.098Z,1.50
2018-08-07T01:47:46.934Z,1.80
2018-08-07T01:50:15.487Z,1.65
2018-08-07T01:52:43.417Z,1.90
2018-08-07T01:55:21.658Z,1.75
2018-08-07T01:57:49.588Z,1.65
2018-08-07T02:00:17.596Z,1.82
2018-08-07T02:02:45.483Z,1.60
2018-08-07T02:05:13.415Z,1.67
2018-08-07T02:07:42.044Z,1.50
2018-08-07T02:10:15.040Z,1.75
2018-08-07T02:12:42.975Z,1.50
2018-08-07T02:15:11.806Z,1.67
2018-08-07T02:17:39.738Z,1.92
2018-08-07T02:20:11.531Z,1.92
2018-08-07T02:22:40.179Z,1.62
2018-08-07T02:25:10.221Z,1.57
2018-08-07T02:27:38.103Z,1.50
2018-08-07T02:30:08.319Z,1.67
2018-08-07T02:32:36.677Z,1.67
2018-08-07T02:35:05.661Z,1.95
2018-08-07T02:37:33.607Z,1.70
2018-08-07T02:40:01.533Z,1.45
2018-08-07T02:42:29.415Z,1.77
2018-08-07T02:44:57.257Z,2.17
2018-08-07T02:47:25.144Z,1.82
2018-08-07T02:49:53.162Z,1.65
2018-08-07T02:52:21.069Z,1.70
2018-08-07T02:54:49.027Z,1.55
2018-08-07T02:57:16.843Z,1.77
2018-08-07T02:59:44.696Z,1.90
2018-08-07T03:02:12.595Z,1.52
2018-08-07T03:04:40.718Z,1.70
2018-08-07T03:07:08.650Z,1.80
2018-08-07T03:09:36.523Z,1.62
2018-08-07T03:12:04.608Z,1.62
2018-08-07T03:14:32.499Z,1.60
2018-08-07T03:17:00.345Z,1.47
2018-08-07T03:19:28.222Z,1.50
2018-08-07T03:21:56.133Z,1.65
2018-08-07T03:24:23.959Z,1.60
2018-08-07T03:26:51.811Z,1.47
2018-08-07T03:29:19.655Z,1.80
2018-08-07T03:31:47.495Z,1.50
2018-08-07T03:34:15.329Z,1.47
2018-08-07T03:36:43.167Z,1.70
2018-08-07T03:39:12.911Z,2.02
2018-08-07T03:41:40.906Z,1.80
2018-08-07T03:44:09.383Z,1.30
2018-08-07T03:46:37.400Z,1.52
2018-08-07T03:49:05.852Z,1.30
2018-08-07T03:51:33.697Z,1.45
2018-08-07T03:54:01.657Z,1.67
2018-08-07T03:56:29.575Z,1.72
2018-08-07T03:58:57.673Z,1.80
2018-08-07T04:01:25.619Z,1.85
2018-08-07T04:03:53.610Z,1.60
2018-08-07T04:06:21.486Z,1.70
2018-08-07T04:08:49.339Z,1.72
2018-08-07T04:11:17.401Z,1.67
2018-08-07T04:13:45.363Z,1.90
2018-08-07T04:16:13.278Z,1.85
2018-08-07T04:18:41.169Z,1.87
2018-08-07T04:21:09.051Z,1.62
2018-08-07T04:23:37.007Z,1.87
2018-08-07T04:26:04.930Z,1.80
2018-08-07T04:28:32.879Z,1.72
2018-08-07T04:31:00.778Z,1.72
2018-08-07T04:33:28.691Z,1.55
2018-08-07T04:35:56.544Z,1.82
2018-08-07T04:38:24.467Z,1.80
2018-08-07T04:40:52.367Z,2.00
2018-08-07T04:43:20.201Z,1.80
2018-08-07T04:45:48.221Z,1.72
2018-08-07T04:48:16.043Z,1.72
2018-08-07T04:50:43.991Z,1.82
2018-08-07T04:53:11.886Z,1.80
2018-08-07T04:55:39.726Z,1.80
2018-08-07T04:58:07.735Z,2.10
2018-08-07T05:00:35.490Z,2.12
2018-08-07T05:03:03.342Z,1.82
2018-08-07T05:05:31.275Z,2.10
2018-08-07T05:07:59.167Z,1.85
2018-08-07T05:10:27.018Z,1.95
2018-08-07T05:12:54.818Z,2.02
2018-08-07T05:15:22.663Z,2.20
2018-08-07T05:17:50.514Z,1.90
2018-08-07T05:20:18.306Z,1.95
2018-08-07T05:22:46.150Z,2.10
2018-08-07T05:25:13.962Z,2.10
2018-08-07T05:27:41.733Z,1.92
2018-08-07T05:30:12.090Z,1.85
2018-08-07T05:32:39.901Z,2.10
2018-08-07T05:35:08.443Z,2.62
2018-08-07T05:37:36.361Z,2.30
2018-08-07T05:40:04.485Z,2.35
2018-08-07T05:42:32.419Z,2.20
2018-08-07T05:45:00.261Z,2.40
2018-08-07T05:47:28.019Z,2.27
2018-08-07T05:49:55.868Z,2.40
2018-08-07T05:52:23.746Z,2.60
2018-08-07T05:54:51.610Z,2.33
2018-08-07T05:57:19.466Z,2.42
2018-08-07T05:59:47.264Z,2.35
2018-08-07T06:02:15.383Z,2.55
2018-08-07T06:04:43.275Z,2.65
2018-08-07T06:07:11.153Z,2.47
2018-08-07T06:09:39.030Z,2.52
2018-08-07T06:12:06.863Z,2.40
2018-08-07T06:14:34.666Z,2.33
2018-08-07T06:17:02.491Z,3.10
2018-08-07T06:19:30.326Z,2.40
2018-08-07T06:21:58.168Z,2.50
2018-08-07T06:24:26.037Z,2.50
2018-08-07T06:26:53.882Z,2.90
2018-08-07T06:29:21.706Z,2.47
2018-08-07T06:31:49.535Z,2.52
2018-08-07T06:34:17.305Z,2.62
2018-08-07T06:36:45.256Z,2.65
2018-08-07T06:39:13.039Z,2.30
2018-08-07T06:41:40.891Z,2.37
2018-08-07T06:44:08.733Z,2.70
2018-08-07T06:46:36.594Z,2.40
2018-08-07T06:49:04.720Z,3.00
2018-08-07T06:51:32.616Z,2.58
2018-08-07T06:54:00.428Z,2.40
2018-08-07T06:56:28.327Z,2.42
2018-08-07T06:58:56.115Z,2.85
2018-08-07T07:01:24.028Z,2.45
2018-08-07T07:03:52.430Z,2.60
2018-08-07T07:06:20.299Z,2.62
2018-08-07T07:08:48.205Z,2.42
2018-08-07T07:11:16.056Z,2.50
2018-08-07T07:13:43.865Z,2.50
2018-08-07T07:16:11.607Z,2.45
2018-08-07T07:18:39.425Z,2.85
2018-08-07T07:21:07.464Z,2.60
2018-08-07T07:23:35.300Z,2.60
2018-08-07T07:26:03.179Z,2.35
2018-08-07T07:28:31.033Z,2.62
2018-08-07T07:30:58.890Z,2.47
2018-08-07T07:33:26.674Z,2.67
2018-08-07T07:35:54.435Z,2.27
2018-08-07T07:38:22.210Z,2.40
2018-08-07T07:40:50.025Z,2.37
2018-08-07T07:43:17.766Z,2.25
2018-08-07T07:45:45.645Z,2.83
2018-08-07T07:48:13.490Z,2.42
2018-08-07T07:50:41.324Z,2.58
2018-08-07T07:53:09.239Z,2.58
2018-08-07T07:55:37.066Z,2.35
2018-08-07T07:58:04.880Z,2.30
2018-08-07T08:00:32.677Z,2.45
2018-08-07T08:03:00.443Z,2.25
2018-08-07T08:05:28.382Z,2.52
2018-08-07T08:07:56.291Z,2.50
2018-08-07T08:10:24.227Z,2.40
2018-08-07T08:12:52.175Z,2.45
2018-08-07T08:15:19.981Z,2.60
2018-08-07T08:17:48.525Z,2.55
2018-08-07T08:20:20.587Z,2.33
2018-08-07T08:22:49.205Z,2.60
2018-08-07T08:25:17.090Z,2.62
2018-08-07T08:27:44.931Z,2.72
2018-08-07T08:30:14.473Z,2.40
2018-08-07T08:32:42.845Z,2.62
2018-08-07T08:35:12.944Z,2.42
2018-08-07T08:37:41.267Z,2.62
2018-08-07T08:40:13.451Z,2.58
2018-08-07T08:42:41.229Z,2.55
2018-08-07T08:45:14.733Z,2.50
2018-08-07T08:47:43.352Z,2.80
2018-08-07T08:50:13.760Z,2.40
2018-08-07T08:53:05.435Z,2.60
2018-08-07T08:55:33.295Z,2.50
2018-08-07T08:58:01.148Z,2.65
2018-08-07T09:00:32.936Z,2.52
2018-08-07T09:03:02.335Z,2.45
2018-08-07T09:05:30.588Z,2.50
2018-08-07T09:07:58.454Z,2.55
2018-08-07T09:10:28.378Z,2.55
2018-08-07T09:12:56.989Z,3.08
2018-08-07T09:15:55.231Z,2.67
2018-08-07T09:18:33.391Z,2.87
2018-08-07T09:21:01.314Z,2.70
2018-08-07T09:23:29.119Z,2.85
2018-08-07T09:25:57.082Z,2.72
2018-08-07T09:28:24.831Z,3.02
2018-08-07T09:30:52.562Z,3.15
2018-08-07T09:33:45.933Z,4.80
2018-08-07T09:36:13.722Z,2.92
2018-08-07T09:38:41.548Z,2.98
2018-08-07T09:44:16.280Z,2.70
2018-08-07T09:46:44.185Z,2.72
2018-08-07T09:49:11.973Z,2.98
2018-08-07T09:51:39.752Z,2.70
2018-08-07T09:54:07.577Z,3.10
2018-08-07T09:56:35.358Z,3.20
2018-08-07T09:59:03.111Z,3.00
2018-08-07T10:01:31.618Z,2.90
2018-08-07T10:04:00.155Z,3.22
2018-08-07T10:06:27.966Z,2.80
2018-08-07T10:08:55.958Z,3.10
2018-08-07T10:11:23.782Z,3.10
2018-08-07T10:13:56.383Z,3.20
2018-08-07T10:16:24.221Z,3.12
2018-08-07T10:18:52.009Z,3.22
2018-08-07T10:21:19.833Z,3.00
2018-08-07T10:23:47.599Z,3.42
2018-08-07T10:26:21.834Z,3.42
2018-08-07T10:28:49.713Z,3.40
2018-08-07T10:31:17.505Z,3.10
2018-08-07T10:33:45.302Z,3.30
2018-08-07T10:36:13.048Z,3.77
2018-08-07T10:38:40.971Z,3.25
2018-08-07T10:41:08.784Z,3.30
2018-08-07T10:43:36.642Z,3.40
2018-08-07T10:46:04.343Z,3.40
2018-08-07T10:48:32.258Z,3.20
2018-08-07T10:51:00.118Z,3.40
2018-08-07T10:53:27.882Z,3.20
2018-08-07T10:55:55.735Z,3.30
2018-08-07T10:58:23.552Z,3.22
2018-08-07T11:00:51.316Z,3.70
2018-08-07T11:03:19.087Z,3.30
2018-08-07T11:05:46.888Z,3.37
2018-08-07T11:08:14.595Z,3.35
2018-08-07T11:10:42.309Z,3.15
2018-08-07T11:13:10.037Z,3.20
2018-08-07T11:15:37.851Z,2.87
2018-08-07T11:18:05.859Z,3.17
2018-08-07T11:20:33.671Z,3.15
2018-08-07T11:23:02.151Z,3.27
2018-08-07T11:25:30.642Z,3.27
2018-08-07T11:27:58.695Z,3.10
2018-08-07T11:30:27.577Z,3.00
2018-08-07T11:32:56.511Z,3.20
2018-08-07T11:35:24.939Z,3.22
2018-08-07T11:37:54.550Z,3.20
2018-08-07T11:40:22.946Z,3.00
2018-08-07T11:42:51.177Z,3.22
2018-08-07T11:45:20.454Z,3.33
2018-08-07T11:47:48.175Z,3.22
2018-08-07T11:50:17.924Z,3.37
2018-08-07T11:52:45.536Z,3.20
2018-08-07T11:55:14.610Z,3.02
2018-08-07T11:57:42.525Z,3.47
2018-08-07T12:00:29.387Z,3.40
2018-08-07T12:02:56.995Z,3.40
2018-08-07T12:05:24.592Z,3.70
2018-08-07T12:07:52.399Z,3.27
2018-08-07T12:10:20.326Z,3.40
2018-08-07T12:12:47.942Z,3.60
2018-08-07T12:15:18.314Z,4.10
2018-08-07T12:17:46.173Z,3.55
2018-08-07T12:20:13.796Z,3.50
2018-08-07T12:22:41.405Z,3.95
2018-08-07T12:25:11.074Z,3.72
2018-08-07T12:27:38.713Z,3.65
2018-08-07T12:30:15.453Z,3.67
2018-08-07T12:32:43.097Z,4.08
2018-08-07T12:35:10.780Z,4.05
2018-08-07T12:37:55.262Z,3.87
2018-08-07T12:40:25.472Z,3.87
2018-08-07T12:42:58.164Z,3.80
2018-08-07T12:45:25.756Z,3.65
2018-08-07T12:47:53.361Z,3.25
2018-08-07T12:50:20.943Z,3.35
2018-08-07T12:52:48.537Z,3.50
2018-08-07T12:55:20.793Z,3.65
2018-08-07T12:57:48.815Z,3.37
2018-08-07T13:00:19.004Z,3.80
2018-08-07T13:02:46.580Z,3.62
2018-08-07T13:05:14.184Z,3.50
2018-08-07T13:07:41.776Z,3.95
2018-08-07T13:10:11.838Z,4.00
2018-08-07T13:12:40.122Z,4.08
2018-08-07T13:15:09.456Z,3.90
2018-08-07T13:17:37.129Z,3.83
2018-08-07T13:20:06.007Z,3.85
2018-08-07T13:22:34.037Z,4.10
2018-08-07T13:25:01.625Z,4.20
2018-08-07T13:27:29.482Z,3.92
2018-08-07T13:29:57.073Z,3.70
2018-08-07T13:32:24.673Z,3.80
2018-08-07T13:34:52.274Z,4.35
2018-08-07T13:37:19.914Z,4.03
2018-08-07T13:39:47.450Z,3.90
2018-08-07T13:42:15.063Z,3.85
2018-08-07T13:44:42.630Z,3.65
2018-08-07T13:47:10.268Z,3.90
2018-08-07T13:49:37.857Z,4.62
2018-08-07T13:52:05.454Z,4.20
2018-08-07T13:54:32.996Z,4.00
2018-08-07T13:57:00.551Z,3.70
2018-08-07T13:59:28.101Z,4.00
2018-08-07T14:01:55.682Z,4.30
2018-08-07T14:04:23.220Z,3.87
2018-08-07T14:06:50.775Z,3.70
2018-08-07T14:09:18.332Z,3.33
2018-08-07T14:11:45.866Z,3.60
2018-08-07T14:14:13.392Z,3.58
2018-08-07T14:16:40.928Z,3.47
2018-08-07T14:19:08.466Z,3.40
2018-08-07T14:21:36.201Z,3.80
2018-08-07T14:24:03.763Z,3.70
2018-08-07T14:26:31.324Z,3.62
2018-08-07T14:28:58.853Z,3.65
2018-08-07T14:31:26.698Z,3.70
2018-08-07T14:33:54.252Z,3.55
2018-08-07T14:36:21.806Z,4.15
2018-08-07T14:38:49.381Z,3.70
2018-08-07T14:41:16.922Z,3.70
2018-08-07T14:43:44.482Z,3.62
2018-08-07T14:46:12.027Z,3.80
2018-08-07T14:48:39.611Z,3.20
2018-08-07T14:51:07.309Z,3.47
2018-08-07T14:53:34.907Z,3.40
2018-08-07T14:56:02.482Z,3.72
2018-08-07T14:58:30.066Z,3.80
2018-08-07T15:00:57.617Z,3.92
2018-08-07T15:03:25.184Z,4.00
2018-08-07T15:05:52.754Z,3.98
2018-08-07T15:08:20.318Z,3.80
2018-08-07T15:10:47.890Z,3.60
2018-08-07T15:13:15.491Z,3.80
2018-08-07T15:15:43.040Z,3.70
2018-08-07T15:18:10.604Z,3.50
2018-08-07T15:20:38.185Z,3.55
2018-08-07T15:23:06.069Z,3.67
2018-08-07T15:25:33.590Z,3.83
2018-08-07T15:28:01.116Z,3.90
2018-08-07T15:30:32.141Z,3.83
2018-08-07T15:32:59.678Z,3.70
2018-08-07T15:35:28.442Z,4.15
2018-08-07T15:37:56.520Z,3.80
2018-08-07T15:40:24.066Z,3.45
2018-08-07T15:42:51.641Z,3.72
2018-08-07T15:45:20.971Z,3.58
2018-08-07T15:47:48.661Z,3.60
2018-08-07T15:50:17.290Z,3.80
2018-08-07T15:52:48.309Z,3.85
2018-08-07T15:55:18.346Z,3.50
2018-08-07T15:57:45.892Z,3.50
2018-08-07T16:00:18.518Z,3.80
2018-08-07T16:02:46.059Z,3.75
2018-08-07T16:05:13.601Z,3.92
2018-08-07T16:07:41.145Z,3.35
2018-08-07T16:10:12.162Z,3.62
2018-08-07T16:12:39.746Z,3.35
2018-08-07T16:15:07.298Z,3.30
2018-08-07T16:17:34.978Z,3.22
2018-08-07T16:20:02.522Z,3.20
2018-08-07T16:22:30.097Z,3.10
2018-08-07T16:24:57.682Z,3.50
2018-08-07T16:27:25.217Z,3.02
2018-08-07T16:29:52.791Z,3.37
2018-08-07T16:32:20.322Z,3.30
2018-08-07T16:34:47.840Z,2.80
2018-08-07T16:37:15.385Z,3.02
2018-08-07T16:39:42.930Z,3.33
2018-08-07T16:42:20.468Z,3.08
2018-08-07T16:44:48.014Z,2.83
2018-08-07T16:47:15.566Z,3.00
2018-08-07T16:49:43.393Z,2.83
2018-08-07T16:52:10.934Z,3.30
2018-08-07T16:54:38.479Z,2.55
2018-08-07T16:57:06.090Z,2.70
2018-08-07T16:59:33.577Z,2.40
2018-08-07T17:02:01.125Z,2.70
2018-08-07T17:04:28.674Z,2.80
2018-08-07T17:06:56.225Z,2.62
2018-08-07T17:09:23.782Z,2.60
2018-08-07T17:11:51.338Z,2.70
2018-08-07T17:14:18.860Z,2.52
2018-08-07T17:16:46.410Z,2.70
2018-08-07T17:19:13.941Z,2.95
2018-08-07T17:21:41.498Z,2.27
2018-08-07T17:24:09.045Z,2.70
2018-08-07T17:26:36.593Z,2.62
2018-08-07T17:29:04.420Z,2.60
2018-08-07T17:31:31.961Z,2.70
2018-08-07T17:33:59.510Z,2.42
2018-08-07T17:36:27.064Z,2.33
2018-08-07T17:38:54.614Z,2.65
2018-08-07T17:41:22.196Z,2.42
2018-08-07T17:43:49.752Z,2.62
2018-08-07T17:46:17.306Z,3.00
2018-08-07T17:48:44.846Z,2.58
2018-08-07T17:51:12.478Z,2.50
2018-08-07T17:53:40.079Z,2.80
2018-08-07T17:56:07.679Z,2.67
2018-08-07T17:58:35.285Z,3.00
2018-08-07T18:01:02.891Z,3.02
2018-08-07T18:03:30.621Z,3.47
2018-08-07T18:05:58.230Z,2.87
2018-08-07T18:08:25.818Z,3.45
2018-08-07T18:10:53.413Z,3.10
2018-08-07T18:13:21.021Z,3.20
2018-08-07T18:15:48.600Z,3.40
2018-08-07T18:18:16.194Z,3.20
2018-08-07T18:20:43.802Z,3.58
2018-08-07T18:23:11.401Z,3.52
2018-08-07T18:25:38.978Z,3.33
2018-08-07T18:28:06.570Z,3.20
2018-08-07T18:30:34.138Z,3.15
2018-08-07T18:33:01.720Z,3.58
2018-08-07T18:35:29.309Z,3.60
2018-08-07T18:37:56.921Z,2.98
2018-08-07T18:40:24.520Z,3.70
2018-08-07T18:42:52.125Z,3.27
2018-08-07T18:45:19.722Z,3.42
2018-08-07T18:47:47.334Z,3.12
2018-08-07T18:50:18.011Z,3.20
2018-08-07T18:52:45.635Z,3.22
2018-08-07T18:55:14.031Z,3.85
2018-08-07T18:57:42.678Z,3.52
2018-08-07T19:00:16.379Z,3.40
2018-08-07T19:02:43.975Z,2.90
2018-08-07T19:05:14.104Z,3.47
2018-08-07T19:07:41.686Z,3.00
2018-08-07T19:10:10.211Z,3.10
2018-08-07T19:12:37.806Z,3.37
2018-08-07T19:15:05.739Z,3.60
2018-08-07T19:17:33.331Z,3.60
2018-08-07T19:20:00.918Z,3.60
2018-08-07T19:22:28.506Z,3.67
2018-08-07T19:24:56.130Z,3.60
2018-08-07T19:27:23.713Z,3.50
2018-08-07T19:29:51.318Z,3.72
2018-08-07T19:32:18.938Z,3.45
2018-08-07T19:34:46.534Z,3.75
2018-08-07T19:37:14.134Z,3.42
2018-08-07T19:39:41.755Z,3.80
2018-08-07T19:45:15.175Z,3.42
2018-08-07T19:47:43.723Z,4.03
2018-08-07T19:50:12.846Z,3.83
2018-08-07T19:52:40.472Z,3.40
2018-08-07T19:55:11.839Z,3.50
2018-08-07T19:57:39.514Z,3.62
2018-08-07T20:00:12.330Z,3.65
2018-08-07T20:02:39.946Z,3.72
2018-08-07T20:05:07.541Z,3.72
2018-08-07T20:07:35.126Z,3.87
2018-08-07T20:10:02.886Z,4.40
2018-08-07T20:12:30.466Z,4.05
2018-08-07T20:14:58.053Z,3.70
2018-08-07T20:17:25.679Z,4.03
2018-08-07T20:19:53.254Z,3.90
2018-08-07T20:22:20.854Z,4.00
2018-08-07T20:24:48.442Z,4.12
2018-08-07T20:27:16.026Z,4.25
2018-08-07T20:29:43.626Z,4.20
2018-08-07T20:32:11.310Z,4.03
2018-08-07T20:34:38.921Z,3.77
2018-08-07T20:37:06.831Z,3.87
2018-08-07T20:39:37.924Z,4.35
2018-08-07T20:42:05.639Z,4.28
2018-08-07T20:44:33.214Z,4.00
2018-08-07T20:47:00.829Z,3.90
2018-08-07T20:49:28.420Z,4.25
2018-08-07T20:51:56.028Z,4.53
2018-08-07T20:54:49.802Z,4.33
2018-08-07T20:57:17.402Z,4.45
2018-08-07T20:59:44.996Z,4.30
2018-08-07T21:02:12.581Z,4.28
2018-08-07T21:04:41.180Z,4.15
2018-08-07T21:07:12.835Z,4.05
2018-08-07T21:09:46.209Z,4.00
2018-08-07T21:12:13.810Z,4.25
2018-08-07T21:17:53.443Z,4.25
2018-08-07T21:20:21.871Z,4.45
2018-08-07T21:22:49.542Z,4.60
2018-08-07T21:25:19.154Z,4.53
2018-08-07T21:27:47.941Z,4.50
2018-08-07T21:30:19.086Z,4.33
2018-08-07T21:32:46.698Z,4.35
2018-08-07T21:35:14.323Z,4.28
2018-08-07T21:37:41.910Z,4.00
2018-08-07T21:40:13.854Z,4.15
2018-08-07T21:42:41.902Z,4.10
2018-08-07T21:45:09.537Z,3.92
2018-08-07T21:47:37.547Z,4.15
2018-08-07T21:50:08.948Z,4.28
2018-08-07T21:52:36.651Z,4.22
2018-08-07T21:55:05.146Z,4.30
2018-08-07T21:57:36.373Z,4.80
2018-08-07T22:00:40.879Z,3.95
2018-08-07T22:03:08.506Z,3.70
2018-08-07T22:05:36.106Z,4.22
2018-08-07T22:08:03.966Z,4.00
2018-08-07T22:10:31.587Z,4.28
2018-08-07T22:19:29.936Z,4.05
2018-08-07T22:21:57.485Z,4.28
2018-08-07T22:24:25.072Z,4.22
2018-08-07T22:26:52.666Z,4.20
2018-08-07T22:29:20.257Z,4.62
2018-08-07T22:31:47.847Z,4.33
2018-08-07T22:34:15.446Z,4.35
2018-08-07T22:36:43.038Z,4.30
2018-08-07T22:39:10.765Z,4.20
2018-08-07T22:41:38.365Z,4.12
2018-08-07T22:44:06.093Z,4.80
2018-08-07T22:46:33.854Z,4.22
2018-08-07T22:49:01.434Z,4.22
2018-08-07T22:51:29.018Z,4.12
2018-08-07T22:53:56.586Z,4.30
2018-08-07T22:56:24.121Z,4.33
2018-08-07T22:58:51.678Z,4.35
2018-08-07T23:01:19.224Z,4.45
2018-08-07T23:03:46.770Z,4.65
2018-08-07T23:06:14.298Z,4.50
2018-08-07T23:08:41.870Z,4.50
2018-08-07T23:11:09.414Z,4.62
2018-08-07T23:13:36.961Z,4.47
2018-08-07T23:16:04.704Z,4.12
2018-08-07T23:18:32.242Z,4.55
2018-08-07T23:20:59.781Z,4.33
2018-08-07T23:23:27.326Z,4.53
2018-08-07T23:25:54.874Z,4.65
2018-08-07T23:28:22.464Z,4.05
2018-08-07T23:30:49.980Z,4.17
2018-08-07T23:33:17.504Z,4.35
2018-08-07T23:35:45.045Z,4.58
2018-08-07T23:38:12.577Z,4.87
2018-08-07T23:40:40.104Z,4.30
2018-08-07T23:43:07.685Z,4.60
2018-08-07T23:45:35.236Z,4.30
2018-08-07T23:48:02.786Z,4.62
2018-08-07T23:51:00.342Z,4.60
2018-08-07T23:53:27.873Z,4.65
2018-08-07T23:55:55.412Z,4.12
2018-08-07T23:58:22.942Z,3.87
